createdAt,value
2022-09-10T00:02:10.830Z,13.94
2022-09-10T00:04:38.659Z,13.90
2022-09-10T00:07:06.556Z,13.84
2022-09-10T00:09:34.296Z,13.78
2022-09-10T00:12:02.153Z,13.72
2022-09-10T00:14:31.349Z,13.67
2022-09-10T00:16:59.169Z,13.64
2022-09-10T00:19:27.105Z,13.64
2022-09-10T00:21:54.846Z,13.60
2022-09-10T00:24:24.352Z,13.57
2022-09-10T00:26:52.837Z,13.50
2022-09-10T00:29:20.605Z,13.48
2022-09-10T00:31:50.887Z,13.46
2022-09-10T00:34:18.603Z,13.42
2022-09-10T00:36:46.886Z,13.38
2022-09-10T00:39:15.287Z,13.33
2022-09-10T00:41:46.813Z,13.30
2022-09-10T00:44:35.639Z,13.27
2022-09-10T00:47:05.992Z,13.25
2022-09-10T00:49:35.056Z,13.24
2022-09-10T00:52:03.926Z,13.22
2022-09-10T00:54:33.245Z,13.18
2022-09-10T00:57:18.603Z,13.16
2022-09-10T00:59:48.289Z,13.15
2022-09-10T01:02:17.819Z,13.11
2022-09-10T01:04:46.038Z,13.08
2022-09-10T01:07:15.738Z,13.05
2022-09-10T01:09:44.095Z,13.01
2022-09-10T01:12:19.972Z,12.98
2022-09-10T01:14:56.380Z,12.97
2022-09-10T01:17:30.020Z,12.97
2022-09-10T01:20:15.363Z,12.96
2022-09-10T01:22:50.974Z,12.93
2022-09-10T01:25:23.058Z,12.90
2022-09-10T01:27:54.235Z,12.83
2022-09-10T01:30:23.005Z,12.81
2022-09-10T01:32:53.815Z,12.79
2022-09-10T01:35:24.117Z,12.78
2022-09-10T01:37:54.607Z,12.77
2022-09-10T01:40:29.758Z,12.77
2022-09-10T01:43:02.454Z,12.75
2022-09-10T01:45:30.988Z,12.73
2022-09-10T01:48:06.734Z,12.72
2022-09-10T01:50:39.720Z,12.69
2022-09-10T01:53:14.153Z,12.67
2022-09-10T01:55:47.232Z,12.63
2022-09-10T01:58:21.398Z,12.63
2022-09-10T02:00:53.810Z,12.62
2022-09-10T02:03:25.030Z,12.63
2022-09-10T02:05:54.974Z,12.64
2022-09-10T02:08:24.571Z,12.66
2022-09-10T02:10:54.066Z,12.66
2022-09-10T02:13:23.899Z,12.64
2022-09-10T02:15:52.582Z,12.62
2022-09-10T02:18:21.041Z,12.59
2022-09-10T02:20:49.493Z,12.56
2022-09-10T02:23:21.975Z,12.52
2022-09-10T02:25:50.660Z,12.49
2022-09-10T02:28:18.655Z,12.46
2022-09-10T02:30:48.377Z,12.45
2022-09-10T02:33:18.548Z,12.42
2022-09-10T02:35:47.879Z,12.39
2022-09-10T02:38:16.495Z,12.38
2022-09-10T02:40:44.393Z,12.38
2022-09-10T02:43:12.620Z,12.35
2022-09-10T02:45:41.215Z,12.33
2022-09-10T02:48:10.412Z,12.31
2022-09-10T02:50:38.138Z,12.29
2022-09-10T02:53:07.055Z,12.26
2022-09-10T02:55:35.130Z,12.23
2022-09-10T02:58:03.145Z,12.21
2022-09-10T03:00:32.736Z,12.17
2022-09-10T03:03:03.098Z,12.16
2022-09-10T03:05:32.784Z,12.15
2022-09-10T03:08:01.375Z,12.15
2022-09-10T03:10:30.018Z,12.12
2022-09-10T03:12:57.770Z,12.09
2022-09-10T03:15:25.648Z,12.05
2022-09-10T03:17:53.467Z,12.00
2022-09-10T03:20:23.201Z,11.95
2022-09-10T03:22:52.603Z,11.93
2022-09-10T03:25:20.715Z,11.92
2022-09-10T03:27:48.483Z,11.88
2022-09-10T03:30:16.311Z,11.86
2022-09-10T03:32:44.461Z,11.84
2022-09-10T03:35:13.884Z,11.85
2022-09-10T03:37:41.690Z,11.83
2022-09-10T03:40:11.994Z,11.80
2022-09-10T03:42:39.966Z,11.78
2022-09-10T03:45:08.436Z,11.75
2022-09-10T03:47:37.686Z,11.72
2022-09-10T03:50:05.802Z,11.71
2022-09-10T03:52:33.653Z,11.70
2022-09-10T03:55:01.410Z,11.69
2022-09-10T03:57:30.636Z,11.67
2022-09-10T03:59:58.883Z,11.62
2022-09-10T04:02:26.717Z,11.62
2022-09-10T04:04:54.619Z,11.61
2022-09-10T04:07:22.480Z,11.61
2022-09-10T04:09:50.481Z,11.61
2022-09-10T04:12:18.529Z,11.62
2022-09-10T04:14:47.797Z,11.61
2022-09-10T04:17:15.826Z,11.59
2022-09-10T04:19:43.593Z,11.57
2022-09-10T04:22:11.379Z,11.55
2022-09-10T04:24:39.185Z,11.51
2022-09-10T04:27:06.966Z,11.49
2022-09-10T04:29:38.160Z,11.48
2022-09-10T04:32:07.563Z,11.50
2022-09-10T04:34:35.376Z,11.49
2022-09-10T04:37:03.329Z,11.50
2022-09-10T04:39:31.121Z,11.49
2022-09-10T04:41:58.995Z,11.49
2022-09-10T04:44:27.943Z,11.48
2022-09-10T04:46:55.929Z,11.49
2022-09-10T04:49:25.180Z,11.44
2022-09-10T04:51:53.237Z,11.45
2022-09-10T04:54:21.030Z,11.44
2022-09-10T04:56:49.696Z,11.43
2022-09-10T04:59:17.470Z,11.41
2022-09-10T05:01:45.470Z,11.38
2022-09-10T05:04:13.247Z,11.37
2022-09-10T05:06:43.081Z,11.37
2022-09-10T05:09:11.591Z,11.36
2022-09-10T05:11:39.333Z,11.33
2022-09-10T05:14:07.492Z,11.34
2022-09-10T05:16:36.582Z,11.30
2022-09-10T05:19:04.453Z,11.27
2022-09-10T05:21:32.234Z,11.24
2022-09-10T05:24:01.473Z,11.24
2022-09-10T05:26:29.459Z,11.24
2022-09-10T05:28:59.837Z,11.25
2022-09-10T05:31:28.157Z,11.24
2022-09-10T05:33:56.255Z,11.24
2022-09-10T05:36:24.412Z,11.23
2022-09-10T05:38:52.556Z,11.21
2022-09-10T05:41:21.776Z,11.22
2022-09-10T05:43:49.805Z,11.23
2022-09-10T05:46:17.871Z,11.23
2022-09-10T05:48:45.846Z,11.21
2022-09-10T05:51:16.453Z,11.21
2022-09-10T05:53:44.271Z,11.19
2022-09-10T05:56:12.926Z,11.18
2022-09-10T05:58:44.982Z,11.21
2022-09-10T06:01:12.773Z,11.22
2022-09-10T06:03:42.577Z,11.25
2022-09-10T06:06:11.127Z,11.25
2022-09-10T06:08:42.299Z,11.28
2022-09-10T06:11:11.950Z,11.29
2022-09-10T06:13:40.190Z,11.30
2022-09-10T06:16:10.050Z,11.33
2022-09-10T06:18:38.562Z,11.35
2022-09-10T06:21:07.770Z,11.38
2022-09-10T06:23:36.237Z,11.40
2022-09-10T06:26:05.267Z,11.44
2022-09-10T06:28:33.803Z,11.46
2022-09-10T06:31:05.819Z,11.52
2022-09-10T06:33:35.693Z,11.59
2022-09-10T06:36:03.775Z,11.66
2022-09-10T06:38:33.706Z,11.70
2022-09-10T06:41:04.836Z,11.77
2022-09-10T06:43:33.808Z,11.83
2022-09-10T06:46:01.611Z,11.89
2022-09-10T06:48:48.078Z,11.95
2022-09-10T06:51:17.857Z,12.01
2022-09-10T06:53:47.159Z,12.07
2022-09-10T06:56:15.964Z,12.15
2022-09-10T06:58:45.047Z,12.21
2022-09-10T07:01:18.077Z,12.29
2022-09-10T07:03:46.412Z,12.34
2022-09-10T07:06:16.753Z,12.40
2022-09-10T07:08:46.180Z,12.50
2022-09-10T07:11:15.021Z,12.53
2022-09-10T07:13:43.622Z,12.60
2022-09-10T07:16:11.557Z,12.63
2022-09-10T07:18:39.616Z,12.69
2022-09-10T07:21:08.023Z,12.75
2022-09-10T07:23:35.830Z,12.81
2022-09-10T07:26:09.915Z,12.89
2022-09-10T07:28:38.160Z,12.97
2022-09-10T07:31:16.909Z,13.05
2022-09-10T07:33:44.781Z,13.12
2022-09-10T07:36:16.670Z,13.23
2022-09-10T07:38:48.755Z,13.30
2022-09-10T07:41:21.163Z,13.38
2022-09-10T07:43:49.664Z,13.46
2022-09-10T07:46:20.725Z,13.52
2022-09-10T07:48:49.039Z,13.60
2022-09-10T07:51:19.330Z,13.66
2022-09-10T07:53:50.590Z,13.71
2022-09-10T07:56:20.543Z,13.78
2022-09-10T07:58:48.404Z,13.86
2022-09-10T08:01:19.758Z,13.94
2022-09-10T08:03:47.947Z,13.99
2022-09-10T08:06:18.476Z,14.06
2022-09-10T08:11:47.275Z,14.20
2022-09-10T08:14:15.306Z,14.23
2022-09-10T08:16:44.531Z,14.27
2022-09-10T08:19:13.969Z,14.35
2022-09-10T08:21:41.802Z,14.38
2022-09-10T08:24:11.664Z,14.36
2022-09-10T08:26:39.506Z,14.41
2022-09-10T08:29:09.248Z,14.48
2022-09-10T08:31:37.106Z,14.57
2022-09-10T08:34:05.625Z,14.67
2022-09-10T08:36:33.378Z,14.76
2022-09-10T08:39:05.113Z,14.83
2022-09-10T08:41:41.587Z,14.98
2022-09-10T08:44:17.729Z,15.13
2022-09-10T08:46:48.498Z,15.36
2022-09-10T08:49:20.379Z,15.60
2022-09-10T08:51:50.935Z,15.98
2022-09-10T08:54:21.010Z,16.34
2022-09-10T08:56:49.271Z,16.82
2022-09-10T08:59:22.475Z,17.19
2022-09-10T09:01:52.777Z,17.21
2022-09-10T09:04:27.075Z,17.36
2022-09-10T09:06:57.977Z,17.40
2022-09-10T09:09:25.942Z,17.36
2022-09-10T09:12:00.120Z,17.62
2022-09-10T09:14:36.432Z,17.94
2022-09-10T09:17:19.860Z,18.20
2022-09-10T09:19:53.863Z,18.32
2022-09-10T09:22:22.654Z,18.44
2022-09-10T09:24:54.413Z,18.56
2022-09-10T09:27:22.186Z,18.75
2022-09-10T09:32:43.589Z,19.07
2022-09-10T09:35:23.854Z,19.17
2022-09-10T09:37:55.489Z,19.44
2022-09-10T09:40:32.731Z,19.59
2022-09-10T09:43:11.095Z,19.40
2022-09-10T09:45:43.471Z,19.19
2022-09-10T09:48:15.886Z,19.05
2022-09-10T09:50:47.052Z,19.09
2022-09-10T09:53:23.349Z,19.18
2022-09-10T09:55:55.247Z,19.17
2022-09-10T09:58:35.312Z,19.23
2022-09-10T10:01:16.408Z,19.14
2022-09-10T10:03:52.938Z,19.07
2022-09-10T10:06:24.775Z,19.00
2022-09-10T10:09:01.965Z,19.05
2022-09-10T10:11:51.864Z,19.11
2022-09-10T10:14:42.620Z,19.06
2022-09-10T10:26:08.135Z,19.94
2022-09-10T11:28:58.015Z,21.23
2022-09-10T11:31:32.222Z,21.30
2022-09-10T11:34:07.051Z,21.44
2022-09-10T11:36:43.899Z,21.65
2022-09-10T11:39:19.788Z,21.87
2022-09-10T11:41:52.700Z,21.93
2022-09-10T11:44:46.099Z,21.92
2022-09-10T11:47:21.144Z,21.85
2022-09-10T11:49:54.066Z,21.78
2022-09-10T11:52:26.068Z,21.48
2022-09-10T11:54:57.751Z,21.42
2022-09-10T11:57:35.263Z,21.46
2022-09-10T12:00:15.873Z,21.47
2022-09-10T12:03:28.151Z,21.62
2022-09-10T12:06:07.026Z,21.74
2022-09-10T12:08:52.375Z,21.86
2022-09-10T12:11:30.074Z,22.05
2022-09-10T12:13:58.958Z,21.87
2022-09-10T12:16:36.763Z,21.86
2022-09-10T12:19:17.932Z,22.04
2022-09-10T12:21:52.507Z,22.13
2022-09-10T12:24:38.889Z,21.48
2022-09-10T12:27:10.223Z,21.16
2022-09-10T12:29:40.942Z,21.42
2022-09-10T12:32:39.266Z,21.70
2022-09-10T12:35:43.312Z,21.83
2022-09-10T12:38:56.003Z,21.95
2022-09-10T12:41:56.673Z,22.09
2022-09-10T12:44:34.639Z,22.10
2022-09-10T12:47:42.367Z,22.07
2022-09-10T12:50:40.560Z,21.99
2022-09-10T12:53:37.799Z,21.96
2022-09-10T12:56:50.500Z,21.95
2022-09-10T12:59:42.274Z,21.82
2022-09-10T13:02:23.117Z,21.83
2022-09-10T13:04:58.764Z,22.01
2022-09-10T13:07:33.591Z,21.93
2022-09-10T13:10:07.233Z,21.93
2022-09-10T13:12:38.311Z,22.02
2022-09-10T13:15:17.445Z,22.13
2022-09-10T13:18:21.591Z,22.08
2022-09-10T13:20:52.485Z,21.82
2022-09-10T13:23:45.487Z,21.86
2022-09-10T13:26:38.531Z,21.76
2022-09-10T13:29:11.697Z,21.71
2022-09-10T13:31:45.982Z,21.68
2022-09-10T13:34:48.912Z,21.66
2022-09-10T13:37:44.167Z,21.60
2022-09-10T13:40:53.660Z,21.61
2022-09-10T13:43:40.240Z,21.60
2022-09-10T13:46:15.253Z,21.63
2022-09-10T13:48:51.822Z,21.67
2022-09-10T13:51:31.436Z,21.59
2022-09-10T13:54:08.708Z,21.48
2022-09-10T13:56:45.338Z,21.65
2022-09-10T13:59:20.957Z,21.56
2022-09-10T14:01:51.103Z,21.67
2022-09-10T14:04:32.096Z,21.60
2022-09-10T14:07:08.161Z,21.46
2022-09-10T14:09:37.872Z,21.21
2022-09-10T14:12:12.295Z,21.09
2022-09-10T14:14:44.340Z,21.03
2022-09-10T14:17:17.177Z,20.99
2022-09-10T14:19:52.028Z,20.91
2022-09-10T14:22:23.018Z,20.95
2022-09-10T14:24:54.172Z,20.93
2022-09-10T14:27:26.532Z,20.91
2022-09-10T14:29:57.557Z,20.82
2022-09-10T14:32:33.418Z,20.70
2022-09-10T14:35:37.923Z,20.56
2022-09-10T14:38:23.711Z,20.58
2022-09-10T14:40:58.498Z,20.62
2022-09-10T14:43:32.499Z,20.57
2022-09-10T14:46:03.638Z,20.58
2022-09-10T14:48:37.215Z,20.62
2022-09-10T14:51:13.606Z,20.60
2022-09-10T14:53:43.911Z,20.51
2022-09-10T14:56:23.544Z,20.39
2022-09-10T14:58:59.889Z,20.33
2022-09-10T15:01:28.795Z,20.21
2022-09-10T15:03:57.702Z,20.21
2022-09-10T15:06:27.005Z,20.24
2022-09-10T15:08:57.299Z,20.08
2022-09-10T15:11:29.059Z,20.03
2022-09-10T15:13:59.414Z,19.98
2022-09-10T15:16:27.853Z,19.89
2022-09-10T15:18:56.238Z,19.89
2022-09-10T15:21:24.438Z,19.83
2022-09-10T15:23:52.634Z,19.78
2022-09-10T15:26:22.377Z,19.79
2022-09-10T15:28:50.715Z,19.68
2022-09-10T15:31:20.257Z,19.64
2022-09-10T15:33:48.678Z,19.59
2022-09-10T15:36:17.023Z,19.59
2022-09-10T15:38:46.725Z,19.56
2022-09-10T15:41:17.112Z,19.54
2022-09-10T15:43:47.273Z,19.50
2022-09-10T15:46:16.186Z,19.45
2022-09-10T15:48:45.255Z,19.46
2022-09-10T15:51:16.195Z,19.50
2022-09-10T15:53:46.429Z,19.47
2022-09-10T15:56:17.148Z,19.53
2022-09-10T15:58:54.063Z,19.66
2022-09-10T16:01:24.079Z,19.66
2022-09-10T16:03:55.590Z,19.62
2022-09-10T16:06:25.007Z,19.57
2022-09-10T16:08:57.422Z,19.59
2022-09-10T16:11:26.394Z,19.52
2022-09-10T16:14:02.180Z,19.43
2022-09-10T16:16:34.345Z,19.42
2022-09-10T16:19:02.546Z,19.30
2022-09-10T16:21:33.872Z,19.25
2022-09-10T16:24:03.098Z,19.23
2022-09-10T16:26:33.707Z,19.21
2022-09-10T16:29:07.629Z,19.20
2022-09-10T16:31:39.186Z,19.23
2022-09-10T16:34:09.722Z,19.24
2022-09-10T16:36:41.148Z,19.16
2022-09-10T16:39:13.088Z,19.07
2022-09-10T16:41:42.610Z,19.13
2022-09-10T16:44:13.658Z,19.19
2022-09-10T16:46:43.270Z,19.21
2022-09-10T16:49:14.079Z,19.18
2022-09-10T16:51:43.421Z,19.22
2022-09-10T16:54:16.031Z,19.28
2022-09-10T16:56:46.624Z,19.28
2022-09-10T16:59:19.716Z,19.32
2022-09-10T17:01:50.134Z,19.42
2022-09-10T17:04:27.599Z,19.52
2022-09-10T17:06:59.163Z,19.45
2022-09-10T17:09:27.826Z,19.38
2022-09-10T17:11:56.248Z,19.33
2022-09-10T17:14:26.054Z,19.24
2022-09-10T17:16:54.376Z,19.21
2022-09-10T17:19:26.281Z,19.24
2022-09-10T17:21:57.196Z,19.22
2022-09-10T17:24:27.884Z,19.06
2022-09-10T17:26:56.757Z,18.80
2022-09-10T17:29:29.144Z,18.60
2022-09-10T17:31:57.609Z,18.38
2022-09-10T17:34:27.448Z,18.26
2022-09-10T17:36:56.456Z,18.12
2022-09-10T17:39:28.385Z,18.02
2022-09-10T17:41:56.574Z,17.97
2022-09-10T17:44:27.131Z,17.92
2022-09-10T17:46:55.920Z,17.91
2022-09-10T17:49:25.690Z,17.87
2022-09-10T17:51:53.892Z,17.81
2022-09-10T17:54:23.512Z,17.78
2022-09-10T17:56:51.720Z,17.74
2022-09-10T17:59:20.121Z,17.67
2022-09-10T18:01:49.802Z,17.65
2022-09-10T18:04:21.782Z,17.57
2022-09-10T18:06:52.787Z,17.52
2022-09-10T18:09:22.232Z,17.46
2022-09-10T18:11:51.730Z,17.40
2022-09-10T18:14:24.564Z,17.26
2022-09-10T18:16:58.164Z,17.14
2022-09-10T18:19:26.753Z,17.06
2022-09-10T18:21:56.119Z,16.96
2022-09-10T18:24:25.176Z,16.91
2022-09-10T18:26:55.016Z,16.86
2022-09-10T18:29:25.475Z,16.82
2022-09-10T18:31:57.800Z,16.77
2022-09-10T18:34:28.107Z,16.69
2022-09-10T18:36:58.129Z,16.60
2022-09-10T18:39:27.995Z,16.57
2022-09-10T18:41:57.277Z,16.51
2022-09-10T18:44:27.776Z,16.44
2022-09-10T18:47:00.486Z,16.34
2022-09-10T18:49:29.331Z,16.31
2022-09-10T18:51:58.159Z,16.24
2022-09-10T18:54:29.524Z,16.20
2022-09-10T18:56:58.211Z,16.15
2022-09-10T18:59:27.489Z,16.12
2022-09-10T19:02:00.058Z,16.08
2022-09-10T19:04:29.998Z,16.05
2022-09-10T19:06:59.322Z,16.00
2022-09-10T19:09:29.349Z,15.97
2022-09-10T19:12:00.436Z,15.94
2022-09-10T19:14:31.021Z,15.91
2022-09-10T19:17:02.096Z,15.87
2022-09-10T19:19:32.142Z,15.80
2022-09-10T19:22:03.760Z,15.76
2022-09-10T19:24:53.651Z,15.74
2022-09-10T19:27:21.780Z,15.71
2022-09-10T19:29:50.395Z,15.70
2022-09-10T19:32:22.088Z,15.67
2022-09-10T19:34:51.428Z,15.63
2022-09-10T19:37:19.987Z,15.61
2022-09-10T19:39:48.314Z,15.59
2022-09-10T19:42:18.541Z,15.55
2022-09-10T19:44:49.405Z,15.50
2022-09-10T19:47:17.914Z,15.49
2022-09-10T19:49:54.172Z,15.46
2022-09-10T19:52:28.967Z,15.43
2022-09-10T19:55:09.465Z,15.39
2022-09-10T19:57:38.030Z,15.34
2022-09-10T20:00:20.615Z,15.33
2022-09-10T20:03:02.745Z,15.27
2022-09-10T20:05:34.138Z,15.26
2022-09-10T20:08:05.315Z,15.24
2022-09-10T20:10:33.719Z,15.20
2022-09-10T20:13:01.922Z,15.16
2022-09-10T20:15:30.296Z,15.15
2022-09-10T20:17:58.498Z,15.12
2022-09-10T20:20:26.871Z,15.09
2022-09-10T20:22:58.455Z,15.05
2022-09-10T20:25:28.429Z,15.03
2022-09-10T20:27:56.900Z,15.01
2022-09-10T20:30:25.385Z,14.98
2022-09-10T20:32:54.270Z,14.96
2022-09-10T20:35:22.499Z,14.90
2022-09-10T20:37:51.834Z,14.89
2022-09-10T20:40:21.595Z,14.82
2022-09-10T20:42:49.739Z,14.78
2022-09-10T20:45:17.974Z,14.78
2022-09-10T20:47:48.629Z,14.74
2022-09-10T20:50:16.814Z,14.73
2022-09-10T20:52:45.183Z,14.70
2022-09-10T20:55:13.426Z,14.67
2022-09-10T20:57:43.165Z,14.64
2022-09-10T21:00:12.931Z,14.61
2022-09-10T21:02:41.278Z,14.58
2022-09-10T21:05:13.626Z,14.57
2022-09-10T21:07:44.510Z,14.54
2022-09-10T21:10:12.682Z,14.52
2022-09-10T21:12:42.493Z,14.52
2022-09-10T21:15:12.073Z,14.49
2022-09-10T21:17:40.298Z,14.49
2022-09-10T21:20:08.808Z,14.46
2022-09-10T21:22:37.013Z,14.45
2022-09-10T21:25:05.878Z,14.43
2022-09-10T21:27:34.310Z,14.40
2022-09-10T21:30:04.734Z,14.39
2022-09-10T21:32:37.161Z,14.35
2022-09-10T21:35:08.460Z,14.33
2022-09-10T21:37:36.605Z,14.29
2022-09-10T21:40:05.426Z,14.26
2022-09-10T21:42:33.714Z,14.25
2022-09-10T21:45:03.692Z,14.23
2022-09-10T21:47:33.351Z,14.21
2022-09-10T21:50:01.501Z,14.22
2022-09-10T21:52:29.839Z,14.20
2022-09-10T21:54:58.085Z,14.22
2022-09-10T21:57:26.478Z,14.23
2022-09-10T21:59:54.575Z,14.22
2022-09-10T22:02:24.552Z,14.22
2022-09-10T22:04:53.356Z,14.21
2022-09-10T22:07:21.517Z,14.20
2022-09-10T22:09:50.398Z,14.20
2022-09-10T22:12:18.639Z,14.19
2022-09-10T22:14:46.840Z,14.19
2022-09-10T22:17:15.212Z,14.17
2022-09-10T22:19:44.932Z,14.19
2022-09-10T22:22:13.307Z,14.17
2022-09-10T22:24:41.609Z,14.21
2022-09-10T22:27:10.710Z,14.22
2022-09-10T22:29:38.943Z,14.20
2022-09-10T22:32:07.561Z,14.14
2022-09-10T22:34:36.655Z,14.12
2022-09-10T22:37:06.788Z,14.10
2022-09-10T22:39:37.160Z,14.07
2022-09-10T22:42:06.030Z,14.04
2022-09-10T22:44:34.539Z,14.05
2022-09-10T22:47:03.287Z,14.03
2022-09-10T22:49:31.473Z,14.00
2022-09-10T22:51:59.842Z,14.00
2022-09-10T22:54:30.660Z,13.99
2022-09-10T22:56:59.643Z,13.98
2022-09-10T22:59:27.947Z,13.98
2022-09-10T23:01:56.593Z,13.98
2022-09-10T23:04:24.832Z,13.98
2022-09-10T23:06:53.588Z,13.96
2022-09-10T23:09:21.941Z,13.95
2022-09-10T23:11:51.820Z,13.91
2022-09-10T23:14:22.183Z,13.91
2022-09-10T23:16:51.902Z,13.90
2022-09-10T23:19:22.589Z,13.84
2022-09-10T23:21:52.331Z,13.82
2022-09-10T23:24:22.871Z,13.80
2022-09-10T23:26:52.477Z,13.75
2022-09-10T23:29:21.649Z,13.67
2022-09-10T23:31:53.545Z,13.62
2022-09-10T23:34:22.743Z,13.58
2022-09-10T23:36:51.450Z,13.52
2022-09-10T23:39:21.743Z,13.47
2022-09-10T23:41:54.637Z,13.44
2022-09-10T23:44:23.233Z,13.42
2022-09-10T23:46:52.107Z,13.39
2022-09-10T23:49:20.753Z,13.38
2022-09-10T23:51:49.234Z,13.35
2022-09-10T23:54:17.521Z,13.34
2022-09-10T23:56:46.104Z,13.28
